createdAt,value
2019-04-16T00:01:06.795Z,30.77
2019-04-16T00:03:37.059Z,28.50
2019-04-16T00:06:09.997Z,30.07
2019-04-16T00:08:40.144Z,31.07
2019-04-16T00:11:10.327Z,29.27
2019-04-16T00:13:40.472Z,27.23
2019-04-16T00:16:12.664Z,28.40
2019-04-16T00:18:39.259Z,29.23
2019-04-16T00:21:21.313Z,30.97
2019-04-16T00:24:03.244Z,32.97
2019-04-16T00:26:31.711Z,26.53
2019-04-16T00:29:02.053Z,26.80
2019-04-16T00:31:30.882Z,26.07
2019-04-16T00:33:59.379Z,27.40
2019-04-16T00:36:27.862Z,31.60
2019-04-16T00:38:56.366Z,27.73
2019-04-16T00:41:24.845Z,30.83
2019-04-16T00:43:53.337Z,30.17
2019-04-16T00:46:21.818Z,28.57
2019-04-16T00:48:50.392Z,30.23
2019-04-16T00:51:18.875Z,29.23
2019-04-16T00:53:47.390Z,29.03
2019-04-16T00:56:16.695Z,24.73
2019-04-16T00:58:45.467Z,27.33
2019-04-16T01:01:13.937Z,28.43
2019-04-16T01:03:42.447Z,26.67
2019-04-16T01:06:11.001Z,27.87
2019-04-16T01:08:39.503Z,29.20
2019-04-16T01:11:07.981Z,28.70
2019-04-16T01:13:36.490Z,32.77
2019-04-16T01:16:04.996Z,29.53
2019-04-16T01:18:33.482Z,26.63
2019-04-16T01:21:01.972Z,30.87
2019-04-16T01:23:30.482Z,29.73
2019-04-16T01:25:58.960Z,27.43
2019-04-16T01:28:35.123Z,30.00
2019-04-16T01:31:23.589Z,30.10
2019-04-16T01:33:59.696Z,26.87
2019-04-16T01:36:32.501Z,27.43
2019-04-16T01:39:18.383Z,26.23
2019-04-16T01:41:46.913Z,31.67
2019-04-16T01:44:15.421Z,25.83
2019-04-16T01:46:43.907Z,29.97
2019-04-16T01:49:12.409Z,31.27
2019-04-16T01:51:40.908Z,28.93
2019-04-16T01:54:09.407Z,30.33
2019-04-16T01:56:37.901Z,29.03
2019-04-16T01:59:06.422Z,25.93
2019-04-16T02:01:34.911Z,32.13
2019-04-16T02:04:03.411Z,26.23
2019-04-16T02:06:31.885Z,29.53
2019-04-16T02:09:02.956Z,28.30
2019-04-16T02:11:30.603Z,27.43
2019-04-16T02:13:59.119Z,26.23
2019-04-16T02:16:27.603Z,25.70
2019-04-16T02:19:00.843Z,28.17
2019-04-16T02:21:26.312Z,27.17
2019-04-16T02:23:54.906Z,24.17
2019-04-16T02:26:24.228Z,27.80
2019-04-16T02:28:52.890Z,26.53
2019-04-16T02:31:21.385Z,23.13
2019-04-16T02:33:49.868Z,26.03
2019-04-16T02:36:18.379Z,24.10
2019-04-16T02:38:52.748Z,28.93
2019-04-16T02:41:17.238Z,29.23
2019-04-16T02:43:45.712Z,27.63
2019-04-16T02:46:14.379Z,29.87
2019-04-16T02:48:49.986Z,28.40
2019-04-16T02:51:23.815Z,31.17
2019-04-16T02:53:54.416Z,28.43
2019-04-16T02:56:40.484Z,31.73
2019-04-16T02:59:13.817Z,29.80
2019-04-16T03:01:44.269Z,31.47
2019-04-16T03:04:32.471Z,28.77
2019-04-16T03:07:03.330Z,26.60
2019-04-16T03:09:31.253Z,28.97
2019-04-16T03:11:59.767Z,32.27
2019-04-16T03:14:30.061Z,29.20
2019-04-16T03:17:00.258Z,28.30
2019-04-16T03:19:38.813Z,27.53
2019-04-16T03:22:06.282Z,30.73
2019-04-16T03:24:37.554Z,29.23
2019-04-16T03:27:05.539Z,24.80
2019-04-16T03:29:34.191Z,28.20
2019-04-16T03:32:02.727Z,31.57
2019-04-16T03:34:31.177Z,28.10
2019-04-16T03:37:01.936Z,28.37
2019-04-16T03:39:29.891Z,28.07
2019-04-16T03:41:58.481Z,28.77
2019-04-16T03:44:26.974Z,27.90
2019-04-16T03:46:55.497Z,30.37
2019-04-16T03:49:24.566Z,31.23
2019-04-16T03:51:54.203Z,32.87
2019-04-16T03:54:23.254Z,31.50
2019-04-16T03:56:51.870Z,30.00
2019-04-16T03:59:20.349Z,29.73
2019-04-16T04:01:48.861Z,31.10
2019-04-16T04:04:17.596Z,31.23
2019-04-16T04:06:46.230Z,30.20
2019-04-16T04:09:14.717Z,26.77
2019-04-16T04:11:43.191Z,33.83
2019-04-16T04:14:11.710Z,28.53
2019-04-16T04:16:40.256Z,28.53
2019-04-16T04:19:14.051Z,41.33
2019-04-16T04:21:38.969Z,39.70
2019-04-16T04:24:07.477Z,50.80
2019-04-16T04:26:40.946Z,101.63
2019-04-16T04:29:06.496Z,65.73
2019-04-16T04:31:35.077Z,55.13
2019-04-16T04:34:03.580Z,46.33
2019-04-16T04:36:32.065Z,32.63
2019-04-16T04:39:00.644Z,42.13
2019-04-16T04:41:29.158Z,35.97
2019-04-16T04:43:57.651Z,35.23
2019-04-16T04:46:26.140Z,39.03
2019-04-16T04:48:55.711Z,36.30
2019-04-16T04:51:24.840Z,32.63
2019-04-16T04:53:53.340Z,31.37
2019-04-16T04:56:21.819Z,38.17
2019-04-16T04:58:50.400Z,37.20
2019-04-16T05:01:19.020Z,33.33
2019-04-16T05:03:49.116Z,32.77
2019-04-16T05:06:26.841Z,33.00
2019-04-16T05:08:52.614Z,33.17
2019-04-16T05:11:21.092Z,36.13
2019-04-16T05:13:49.631Z,33.57
2019-04-16T05:16:18.106Z,30.80
2019-04-16T05:18:46.623Z,30.40
2019-04-16T05:21:18.026Z,33.67
2019-04-16T05:23:45.326Z,31.77
2019-04-16T05:26:13.797Z,35.37
2019-04-16T05:28:45.417Z,31.07
2019-04-16T05:31:12.519Z,37.40
2019-04-16T05:33:41.029Z,31.60
2019-04-16T05:36:11.039Z,36.00
2019-04-16T05:38:39.734Z,33.73
2019-04-16T05:41:13.652Z,38.43
2019-04-16T05:43:38.447Z,32.03
2019-04-16T05:46:08.842Z,36.73
2019-04-16T05:48:37.162Z,37.60
2019-04-16T05:51:05.643Z,33.93
2019-04-16T05:53:37.351Z,34.97
2019-04-16T05:56:15.901Z,41.43
2019-04-16T05:58:44.432Z,39.10
2019-04-16T06:01:17.051Z,37.43
2019-04-16T06:03:45.529Z,39.63
2019-04-16T06:06:14.042Z,43.37
2019-04-16T06:08:42.536Z,39.30
2019-04-16T06:11:11.049Z,39.37
2019-04-16T06:13:44.118Z,36.53
2019-04-16T06:16:13.241Z,32.77
2019-04-16T06:18:55.315Z,30.90
2019-04-16T06:21:41.860Z,32.93
2019-04-16T06:24:23.892Z,37.37
2019-04-16T06:26:54.011Z,32.47
2019-04-16T06:29:25.385Z,39.73
2019-04-16T06:32:13.774Z,33.80
2019-04-16T06:34:59.941Z,31.30
2019-04-16T06:37:41.633Z,32.47
2019-04-16T06:40:31.703Z,29.87
2019-04-16T06:43:02.752Z,34.03
2019-04-16T06:45:36.964Z,27.77
2019-04-16T06:48:06.600Z,31.40
2019-04-16T06:50:40.585Z,29.67
2019-04-16T06:53:10.990Z,32.97
2019-04-16T06:55:57.544Z,30.53
2019-04-16T06:58:50.691Z,30.97
2019-04-16T07:01:27.496Z,32.37
2019-04-16T07:03:59.686Z,33.20
2019-04-16T07:06:47.390Z,32.67
2019-04-16T07:09:17.581Z,31.67
2019-04-16T07:11:54.567Z,30.33
2019-04-16T07:14:19.583Z,30.40
2019-04-16T07:16:48.084Z,30.60
2019-04-16T07:19:17.661Z,30.63
2019-04-16T07:21:49.644Z,29.80
2019-04-16T07:24:16.666Z,30.90
2019-04-16T07:26:47.859Z,30.10
2019-04-16T07:29:22.927Z,27.00
2019-04-16T07:31:53.516Z,32.93
2019-04-16T07:34:30.210Z,28.37
2019-04-16T07:37:01.777Z,30.93
2019-04-16T07:39:47.256Z,29.30
2019-04-16T07:42:22.129Z,26.30
2019-04-16T07:44:54.882Z,25.37
2019-04-16T07:47:42.038Z,29.43
2019-04-16T07:50:18.487Z,24.07
2019-04-16T07:52:48.638Z,26.50
2019-04-16T07:55:35.374Z,22.97
2019-04-16T07:58:03.894Z,27.33
2019-04-16T08:00:32.440Z,22.63
2019-04-16T08:03:00.939Z,25.47
2019-04-16T08:05:29.426Z,20.63
2019-04-16T08:07:57.940Z,20.63
2019-04-16T08:10:26.419Z,15.43
2019-04-16T08:12:59.797Z,17.70
2019-04-16T08:15:26.760Z,14.90
2019-04-16T08:17:55.565Z,17.13
2019-04-16T08:20:24.190Z,16.87
2019-04-16T08:22:54.349Z,18.63
2019-04-16T08:25:24.469Z,16.20
2019-04-16T08:27:53.988Z,16.63
2019-04-16T08:30:23.230Z,17.63
2019-04-16T08:32:51.808Z,18.93
2019-04-16T08:35:20.284Z,17.50
2019-04-16T08:37:49.620Z,22.33
2019-04-16T08:40:18.305Z,22.10
2019-04-16T08:42:46.831Z,18.00
2019-04-16T08:45:15.469Z,16.30
2019-04-16T08:47:45.210Z,18.62
2019-04-16T08:50:14.278Z,16.62
2019-04-16T08:52:42.783Z,16.30
2019-04-16T08:55:11.267Z,14.05
2019-04-16T08:57:39.778Z,18.73
2019-04-16T09:00:14.149Z,10.60
2019-04-16T09:02:40.247Z,10.98
2019-04-16T09:05:11.517Z,9.68
2019-04-16T09:07:42.089Z,9.35
2019-04-16T09:10:18.498Z,9.60
2019-04-16T09:12:47.599Z,14.13
2019-04-16T09:15:17.165Z,10.55
2019-04-16T09:17:47.304Z,10.45
2019-04-16T09:20:17.559Z,9.80
2019-04-16T09:22:49.173Z,8.50
2019-04-16T09:25:17.968Z,12.55
2019-04-16T09:27:48.080Z,9.28
2019-04-16T09:30:18.382Z,7.95
2019-04-16T09:33:02.214Z,8.45
2019-04-16T09:35:32.706Z,9.88
2019-04-16T09:38:02.838Z,11.68
2019-04-16T09:40:50.867Z,8.25
2019-04-16T09:43:21.000Z,9.65
2019-04-16T09:45:49.495Z,8.30
2019-04-16T09:48:17.974Z,8.95
2019-04-16T09:50:48.004Z,10.18
2019-04-16T09:53:16.660Z,9.23
2019-04-16T09:55:47.590Z,10.25
2019-04-16T09:58:17.018Z,10.93
2019-04-16T10:00:47.307Z,11.28
2019-04-16T10:03:17.643Z,10.43
2019-04-16T10:05:46.133Z,9.30
2019-04-16T10:08:14.601Z,8.78
2019-04-16T10:10:43.105Z,10.15
2019-04-16T10:13:11.585Z,9.48
2019-04-16T10:15:40.102Z,11.00
2019-04-16T10:18:08.633Z,10.72
2019-04-16T10:20:40.291Z,13.53
2019-04-16T10:23:09.186Z,14.78
2019-04-16T10:25:37.677Z,11.80
2019-04-16T10:28:10.524Z,12.45
2019-04-16T10:30:46.753Z,13.08
2019-04-16T10:33:15.295Z,10.43
2019-04-16T10:35:43.867Z,14.83
2019-04-16T10:38:25.977Z,9.93
2019-04-16T10:41:01.869Z,16.67
2019-04-16T10:43:44.002Z,11.30
2019-04-16T10:46:09.970Z,17.12
2019-04-16T10:48:46.031Z,10.95
2019-04-16T10:51:28.403Z,10.32
2019-04-16T10:54:14.592Z,11.00
2019-04-16T10:57:00.892Z,10.40
2019-04-16T10:59:47.137Z,13.20
2019-04-16T11:02:32.373Z,12.50
2019-04-16T11:05:05.203Z,14.65
2019-04-16T11:07:35.345Z,11.73
2019-04-16T11:10:07.741Z,11.53
2019-04-16T11:12:36.319Z,13.50
2019-04-16T11:15:05.631Z,12.80
2019-04-16T11:17:34.189Z,12.60
2019-04-16T11:20:02.699Z,10.65
2019-04-16T11:22:31.587Z,14.95
2019-04-16T11:25:00.167Z,15.68
2019-04-16T11:27:28.724Z,11.50
2019-04-16T11:29:57.216Z,14.38
2019-04-16T11:32:27.443Z,13.48
2019-04-16T11:34:55.914Z,14.18
2019-04-16T11:37:24.410Z,13.45
2019-04-16T11:39:52.896Z,14.15
2019-04-16T11:42:21.841Z,13.40
2019-04-16T11:44:50.639Z,12.60
2019-04-16T11:47:19.152Z,13.68
2019-04-16T11:49:47.730Z,17.52
2019-04-16T11:52:16.219Z,15.13
2019-04-16T11:54:47.046Z,15.05
2019-04-16T11:57:14.970Z,16.12
2019-04-16T11:59:43.452Z,14.78
2019-04-16T12:02:25.539Z,17.35
2019-04-16T12:05:10.751Z,15.63
2019-04-16T12:07:40.896Z,16.62
2019-04-16T12:10:15.351Z,15.80
2019-04-16T12:12:57.398Z,13.95
2019-04-16T12:15:43.957Z,17.20
2019-04-16T12:18:26.760Z,15.20
2019-04-16T12:20:56.874Z,13.22
2019-04-16T12:23:43.505Z,14.75
2019-04-16T12:26:22.766Z,14.00
2019-04-16T12:28:55.356Z,12.63
2019-04-16T12:31:28.501Z,12.47
2019-04-16T12:34:07.539Z,12.00
2019-04-16T12:36:53.835Z,14.53
2019-04-16T12:39:36.339Z,12.95
2019-04-16T12:42:06.797Z,15.72
2019-04-16T12:44:53.292Z,13.40
2019-04-16T12:47:23.413Z,16.40
2019-04-16T12:50:12.074Z,19.15
2019-04-16T12:52:45.154Z,14.98
2019-04-16T12:55:18.444Z,13.55
2019-04-16T12:58:03.954Z,13.75
2019-04-16T13:00:50.005Z,12.63
2019-04-16T13:03:35.468Z,12.10
2019-04-16T13:06:26.183Z,13.72
2019-04-16T13:09:11.308Z,12.47
2019-04-16T13:11:44.228Z,13.45
2019-04-16T13:14:23.608Z,13.88
2019-04-16T13:16:59.731Z,12.10
2019-04-16T13:19:32.475Z,12.65
2019-04-16T13:22:03.765Z,13.35
2019-04-16T13:24:42.682Z,13.98
2019-04-16T13:27:12.815Z,14.25
2019-04-16T13:29:41.316Z,12.90
2019-04-16T13:32:09.800Z,13.68
2019-04-16T13:34:38.327Z,13.43
2019-04-16T13:37:06.886Z,14.38
2019-04-16T13:39:46.450Z,11.85
2019-04-16T13:42:14.943Z,13.60
2019-04-16T13:44:45.087Z,11.78
2019-04-16T13:47:13.561Z,11.83
2019-04-16T13:49:52.581Z,13.08
2019-04-16T13:52:25.130Z,11.43
2019-04-16T13:54:59.364Z,13.13
2019-04-16T13:57:32.514Z,13.30
2019-04-16T14:00:04.888Z,15.93
2019-04-16T14:02:40.185Z,13.55
2019-04-16T14:05:11.003Z,11.15
2019-04-16T14:07:38.968Z,11.65
2019-04-16T14:10:07.819Z,25.50
2019-04-16T14:12:42.157Z,11.43
2019-04-16T14:15:08.926Z,11.85
2019-04-16T14:17:51.823Z,12.73
2019-04-16T14:20:12.655Z,12.20
2019-04-16T14:22:40.024Z,13.43
2019-04-16T14:25:09.553Z,14.20
2019-04-16T14:27:38.060Z,14.03
2019-04-16T14:30:10.380Z,11.50
2019-04-16T14:32:39.875Z,13.70
2019-04-16T14:35:13.156Z,19.20
2019-04-16T14:37:41.665Z,13.00
2019-04-16T14:40:12.016Z,12.70
2019-04-16T14:42:40.589Z,15.20
2019-04-16T14:45:20.462Z,13.58
2019-04-16T14:47:48.970Z,9.80
2019-04-16T14:50:20.013Z,12.25
2019-04-16T14:52:47.670Z,10.82
2019-04-16T14:55:32.823Z,15.15
2019-04-16T14:58:02.974Z,11.33
2019-04-16T15:00:36.638Z,13.75
2019-04-16T15:03:06.784Z,14.73
2019-04-16T15:05:36.906Z,14.53
2019-04-16T15:08:09.895Z,10.88
2019-04-16T15:10:48.666Z,9.83
2019-04-16T15:13:21.955Z,11.10
2019-04-16T15:16:08.721Z,13.20
2019-04-16T15:18:27.034Z,11.12
2019-04-16T15:21:13.147Z,9.75
2019-04-16T15:24:01.882Z,13.62
2019-04-16T15:26:52.309Z,12.58
2019-04-16T15:29:20.879Z,13.68
2019-04-16T15:31:51.092Z,10.63
2019-04-16T15:34:24.189Z,13.13
2019-04-16T15:36:55.175Z,12.80
2019-04-16T15:39:25.508Z,10.58
2019-04-16T15:42:16.337Z,10.05
2019-04-16T15:44:43.669Z,13.55
2019-04-16T15:47:32.755Z,10.43
2019-04-16T15:50:18.047Z,10.75
2019-04-16T15:52:48.211Z,13.88
2019-04-16T15:55:24.260Z,10.28
2019-04-16T15:57:52.883Z,11.95
2019-04-16T16:00:29.521Z,11.20
2019-04-16T16:03:05.760Z,10.53
2019-04-16T16:05:38.658Z,10.48
2019-04-16T16:08:11.601Z,11.10
2019-04-16T16:10:45.154Z,12.50
2019-04-16T16:13:11.966Z,12.33
2019-04-16T16:15:41.217Z,13.88
2019-04-16T16:18:09.733Z,11.20
2019-04-16T16:20:38.216Z,10.53
2019-04-16T16:23:06.715Z,16.48
2019-04-16T16:25:35.405Z,12.40
2019-04-16T16:28:03.862Z,9.98
2019-04-16T16:30:32.344Z,14.65
2019-04-16T16:33:00.850Z,12.25
2019-04-16T16:35:29.329Z,12.82
2019-04-16T16:37:57.827Z,10.48
2019-04-16T16:40:26.306Z,10.93
2019-04-16T16:42:54.858Z,10.58
2019-04-16T16:45:25.133Z,13.80
2019-04-16T16:47:53.602Z,9.53
2019-04-16T16:50:22.094Z,10.15
2019-04-16T16:53:04.854Z,10.20
2019-04-16T16:55:38.268Z,11.63
2019-04-16T16:58:08.535Z,12.30
2019-04-16T17:00:56.360Z,11.85
2019-04-16T17:03:26.726Z,11.18
2019-04-16T17:05:56.289Z,19.45
2019-04-16T17:08:27.129Z,12.13
2019-04-16T17:10:55.015Z,15.20
2019-04-16T17:13:23.489Z,14.68
2019-04-16T17:15:51.996Z,12.82
2019-04-16T17:18:20.471Z,12.28
2019-04-16T17:20:50.407Z,12.45
2019-04-16T17:23:19.133Z,14.30
2019-04-16T17:25:47.630Z,12.78
2019-04-16T17:28:16.107Z,12.25
2019-04-16T17:30:44.606Z,13.25
2019-04-16T17:33:13.095Z,15.65
2019-04-16T17:35:46.017Z,16.40
2019-04-16T17:38:11.788Z,15.70
2019-04-16T17:40:57.843Z,14.83
2019-04-16T17:43:37.874Z,13.48
2019-04-16T17:46:24.839Z,13.45
2019-04-16T17:48:58.190Z,15.30
2019-04-16T17:51:33.902Z,15.20
2019-04-16T17:54:12.747Z,15.23
2019-04-16T17:56:59.015Z,23.50
2019-04-16T17:59:34.988Z,15.80
2019-04-16T18:02:07.885Z,17.02
2019-04-16T18:04:44.484Z,14.07
2019-04-16T18:07:28.794Z,12.80
2019-04-16T18:10:01.550Z,16.05
2019-04-16T18:12:42.641Z,16.93
2019-04-16T18:15:19.107Z,15.23
2019-04-16T18:18:02.132Z,16.23
2019-04-16T18:20:32.354Z,16.20
2019-04-16T18:23:02.614Z,17.63
2019-04-16T18:25:55.513Z,16.03
2019-04-16T18:28:26.126Z,14.90
2019-04-16T18:30:56.286Z,17.60
2019-04-16T18:33:31.894Z,16.87
2019-04-16T18:36:02.580Z,16.77
2019-04-16T18:38:38.894Z,22.40
2019-04-16T18:41:09.044Z,15.43
2019-04-16T18:43:55.245Z,18.33
2019-04-16T18:46:30.092Z,17.43
2019-04-16T18:48:59.715Z,16.07
2019-04-16T18:51:32.942Z,18.37
2019-04-16T18:53:58.416Z,18.27
2019-04-16T18:56:26.924Z,15.70
2019-04-16T18:58:55.398Z,15.97
2019-04-16T19:01:29.716Z,15.20
2019-04-16T19:03:58.891Z,18.53
2019-04-16T19:06:27.620Z,18.63
2019-04-16T19:08:56.089Z,16.87
2019-04-16T19:11:24.674Z,18.33
2019-04-16T19:13:53.656Z,16.57
2019-04-16T19:16:22.242Z,18.07
2019-04-16T19:18:50.718Z,18.57
2019-04-16T19:21:19.326Z,22.90
2019-04-16T19:23:47.790Z,15.27
2019-04-16T19:26:16.295Z,18.83
2019-04-16T19:28:45.555Z,17.53
2019-04-16T19:31:14.149Z,18.23
2019-04-16T19:33:42.619Z,17.87
2019-04-16T19:36:11.118Z,16.80
2019-04-16T19:38:40.633Z,17.43
2019-04-16T19:41:09.346Z,17.70
2019-04-16T19:43:37.925Z,15.87
2019-04-16T19:46:06.555Z,18.70
2019-04-16T19:48:36.227Z,18.27
2019-04-16T19:51:07.222Z,16.97
2019-04-16T19:53:35.255Z,18.30
2019-04-16T19:56:03.805Z,17.97
2019-04-16T19:58:32.306Z,18.07
2019-04-16T20:01:00.795Z,20.03
2019-04-16T20:03:30.622Z,18.10
2019-04-16T20:05:59.516Z,20.07
2019-04-16T20:08:28.026Z,21.07
2019-04-16T20:10:56.592Z,19.80
2019-04-16T20:13:25.141Z,16.43
2019-04-16T20:15:53.606Z,16.10
2019-04-16T20:18:23.764Z,17.60
2019-04-16T20:20:52.251Z,18.30
2019-04-16T20:23:20.756Z,19.80
2019-04-16T20:25:49.263Z,18.83
2019-04-16T20:28:17.764Z,21.37
2019-04-16T20:30:46.246Z,19.10
2019-04-16T20:33:14.748Z,19.33
2019-04-16T20:35:43.224Z,20.57
2019-04-16T20:38:11.732Z,22.37
2019-04-16T20:40:40.225Z,20.13
2019-04-16T20:43:08.750Z,18.77
2019-04-16T20:45:37.244Z,21.87
2019-04-16T20:48:05.918Z,19.27
2019-04-16T20:50:36.026Z,18.43
2019-04-16T20:53:07.370Z,18.97
2019-04-16T20:55:34.726Z,19.90
2019-04-16T20:58:03.237Z,23.17
2019-04-16T21:00:35.757Z,17.83
2019-04-16T21:03:04.744Z,19.40
2019-04-16T21:05:35.805Z,20.00
2019-04-16T21:08:03.641Z,24.20
2019-04-16T21:10:35.389Z,24.33
2019-04-16T21:13:02.375Z,21.23
2019-04-16T21:15:30.851Z,27.53
2019-04-16T21:17:59.521Z,19.47
2019-04-16T21:20:28.007Z,22.20
2019-04-16T21:22:57.618Z,21.87
2019-04-16T21:25:26.709Z,21.43
2019-04-16T21:27:56.854Z,19.33
2019-04-16T21:30:25.410Z,21.63
2019-04-16T21:32:58.230Z,20.77
2019-04-16T21:35:34.054Z,23.63
2019-04-16T21:38:13.380Z,21.77
2019-04-16T21:40:41.858Z,20.60
2019-04-16T21:43:10.373Z,22.60
2019-04-16T21:45:38.851Z,19.57
2019-04-16T21:48:07.346Z,24.70
2019-04-16T21:50:35.821Z,22.77
2019-04-16T21:53:04.395Z,22.53
2019-04-16T21:55:35.449Z,22.20
2019-04-16T21:58:03.089Z,22.07
2019-04-16T22:00:39.607Z,22.97
2019-04-16T22:03:13.497Z,26.43
2019-04-16T22:05:42.041Z,21.73
2019-04-16T22:08:10.550Z,26.37
2019-04-16T22:10:39.024Z,24.17
2019-04-16T22:13:07.531Z,25.23
2019-04-16T22:15:35.999Z,26.00
2019-04-16T22:18:07.571Z,29.03
2019-04-16T22:20:35.805Z,26.17
2019-04-16T22:23:05.111Z,24.70
2019-04-16T22:25:33.607Z,27.23
2019-04-16T22:28:02.214Z,26.57
2019-04-16T22:30:30.666Z,25.33
2019-04-16T22:32:59.138Z,27.83
2019-04-16T22:35:30.072Z,26.83
2019-04-16T22:37:58.056Z,25.50
2019-04-16T22:40:43.119Z,26.73
2019-04-16T22:43:29.340Z,27.00
2019-04-16T22:45:59.473Z,24.27
2019-04-16T22:48:27.959Z,27.67
2019-04-16T22:50:56.460Z,24.07
2019-04-16T22:53:24.945Z,28.10
2019-04-16T22:55:56.458Z,23.80
2019-04-16T22:58:24.420Z,20.97
2019-04-16T23:00:54.939Z,24.03
2019-04-16T23:03:23.412Z,23.47
2019-04-16T23:05:51.911Z,25.43
2019-04-16T23:08:20.401Z,21.17
2019-04-16T23:10:50.539Z,22.97
2019-04-16T23:13:19.124Z,21.47
2019-04-16T23:15:47.624Z,24.23
2019-04-16T23:18:17.651Z,17.57
2019-04-16T23:20:46.326Z,24.67
2019-04-16T23:23:17.863Z,23.50
2019-04-16T23:25:45.032Z,25.20
2019-04-16T23:28:13.508Z,23.43
2019-04-16T23:30:42.050Z,22.10
2019-04-16T23:33:10.524Z,21.40
2019-04-16T23:35:43.385Z,23.60
2019-04-16T23:38:09.221Z,24.77
2019-04-16T23:40:40.729Z,19.10
2019-04-16T23:43:24.311Z,21.43
2019-04-16T23:46:01.678Z,21.27
2019-04-16T23:48:31.765Z,21.10
2019-04-16T23:51:02.190Z,22.53
2019-04-16T23:53:38.160Z,22.50
2019-04-16T23:56:09.340Z,22.33
2019-04-16T23:58:42.374Z,21.37
